ENRA Airport Information

Runway Information
Runway 14 Length 2759 ft width 0 ft
Elevation 226 ft Threshold 0 ft Heading 0
Runway 32 Length 2759 ft Width 0 ft
Elevation 220 ft Threshold 0 ft Heading 0
Airport Frequencies
Airport Navaids
Type NDB Name Strommen Frequency 345 KHZ
Airport Weather Information & NOTAM
ADDS - METARS form results

(0104 UTC 27 July 2021)
Data provider http://aviationweather.gov/metar/data/
 
Forecast for: AMD
Text: TAF AMD ENRA 262040Z 2620/2701 09005KT 9999 FEW030
Forecast period: 2000 UTC 26 July 2021 to 0100 UTC 27 July 2021
Forecast type: FROM: standard forecast or significant change
Winds: from the E (90 degrees) at 6 MPH (5 knots; 2.6 m/s)
Visibility: 6 or more miles (10+ km)
Ceiling: at least 12,000 feet AGL
Clouds: few clouds at 3000 feet AGL
Weather: no significant weather forecast for this period
Text: TEMPO 2620/2622 FEW030CB
Forecast period: 2000 to 2200 UTC 26 July 2021
Forecast type: TEMPORARY: The following changes expected for less than half the time period
Visibility: missing
Ceiling: at least 12,000 feet AGL
Clouds: few clouds at 3000 feet AGL
Weather: no significant weather forecast for this period